createdAt,value
2023-03-30T00:01:17.218Z,99481.94
2023-03-30T00:03:47.516Z,99474.16
2023-03-30T00:06:23.452Z,99480.28
2023-03-30T00:08:57.601Z,99474.00
2023-03-30T00:11:26.598Z,99471.34
2023-03-30T00:13:55.058Z,99455.47
2023-03-30T00:16:23.171Z,99453.00
2023-03-30T00:18:51.518Z,99451.81
2023-03-30T00:21:21.022Z,99450.19
2023-03-30T00:23:49.551Z,99446.50
2023-03-30T00:26:17.583Z,99444.06
2023-03-30T00:28:46.426Z,99438.56
2023-03-30T00:31:14.345Z,99437.59
2023-03-30T00:33:47.132Z,99446.50
2023-03-30T00:36:16.613Z,99443.22
2023-03-30T00:38:45.897Z,99437.13
2023-03-30T00:41:13.650Z,99434.66
2023-03-30T00:44:04.210Z,99426.09
2023-03-30T00:46:33.094Z,99422.81
2023-03-30T00:49:08.690Z,99423.81
2023-03-30T00:51:40.571Z,99420.53
2023-03-30T00:54:19.298Z,99420.31
2023-03-30T00:56:47.276Z,99422.16
2023-03-30T00:59:15.748Z,99419.50
2023-03-30T01:01:50.234Z,99426.44
2023-03-30T01:04:19.096Z,99422.81
2023-03-30T01:06:48.953Z,99420.16
2023-03-30T01:09:18.353Z,99418.69
2023-03-30T01:11:46.180Z,99417.03
2023-03-30T01:14:16.643Z,99417.88
2023-03-30T01:16:50.537Z,99412.94
2023-03-30T01:20:09.961Z,99416.22
2023-03-30T01:22:50.446Z,99407.66
2023-03-30T01:25:39.683Z,99408.28
2023-03-30T01:28:24.541Z,99405.63
2023-03-30T01:31:49.559Z,99404.66
2023-03-30T01:34:36.488Z,99405.28
2023-03-30T01:38:01.516Z,99412.38
2023-03-30T01:41:02.381Z,99400.34
2023-03-30T01:44:08.932Z,99393.44
2023-03-30T01:46:56.017Z,99398.72
2023-03-30T01:49:46.847Z,99392.75
2023-03-30T01:52:30.661Z,99391.16
2023-03-30T01:55:41.569Z,99390.50
2023-03-30T01:58:29.049Z,99388.84
2023-03-30T02:01:04.022Z,99388.84
2023-03-30T02:03:40.762Z,99392.53
2023-03-30T02:06:25.650Z,99397.81
2023-03-30T02:08:59.397Z,99389.22
2023-03-30T02:11:31.703Z,99389.22
2023-03-30T02:14:02.689Z,99382.31
2023-03-30T02:16:45.074Z,99380.66
2023-03-30T02:19:12.982Z,99389.97
2023-03-30T02:21:42.732Z,99370.00
2023-03-30T02:24:19.490Z,99379.75
2023-03-30T02:26:52.186Z,99379.28
2023-03-30T02:29:23.012Z,99368.25
2023-03-30T02:31:57.346Z,99371.88
2023-03-30T02:34:40.132Z,99366.59
2023-03-30T02:37:40.112Z,99372.28
2023-03-30T02:40:47.607Z,99370.00
2023-03-30T02:43:54.282Z,99364.06
2023-03-30T02:46:50.480Z,99368.06
2023-03-30T02:50:12.916Z,99369.72
2023-03-30T02:52:59.548Z,99366.78
2023-03-30T02:55:49.889Z,99370.41
2023-03-30T02:58:47.697Z,99366.50
2023-03-30T03:01:41.048Z,99358.94
2023-03-30T03:04:19.538Z,99357.66
2023-03-30T03:07:04.103Z,99359.66
2023-03-30T03:09:32.184Z,99356.00
2023-03-30T03:11:59.720Z,99353.09
2023-03-30T03:14:35.117Z,99348.97
2023-03-30T03:17:05.082Z,99357.94
2023-03-30T03:19:37.236Z,99357.09
2023-03-30T03:22:05.368Z,99346.88
2023-03-30T03:24:39.209Z,99350.53
2023-03-30T03:27:29.539Z,99345.25
2023-03-30T03:30:15.897Z,99343.94
2023-03-30T03:32:51.641Z,99340.31
2023-03-30T03:35:19.471Z,99335.03
2023-03-30T03:37:47.317Z,99324.47
2023-03-30T03:40:14.789Z,99324.47
2023-03-30T03:42:42.938Z,99321.19
2023-03-30T03:45:15.455Z,99312.25
2023-03-30T03:47:56.122Z,99309.44
2023-03-30T03:50:50.544Z,99306.94
2023-03-30T03:53:19.239Z,99306.94
2023-03-30T03:55:46.998Z,99301.66
2023-03-30T03:58:16.700Z,99298.03
2023-03-30T04:00:44.294Z,99292.75
2023-03-30T04:03:12.552Z,99294.75
2023-03-30T04:05:41.146Z,99290.28
2023-03-30T04:08:11.028Z,99289.47
2023-03-30T04:10:41.856Z,99289.47
2023-03-30T04:13:29.872Z,99287.81
2023-03-30T04:16:26.660Z,99277.59
2023-03-30T04:19:16.353Z,99282.88
2023-03-30T04:22:07.508Z,99279.63
2023-03-30T04:24:54.115Z,99276.34
2023-03-30T04:27:42.945Z,99269.78
2023-03-30T04:30:30.652Z,99269.78
2023-03-30T04:33:17.009Z,99268.56
2023-03-30T04:36:02.792Z,99262.50
2023-03-30T04:39:00.734Z,99260.00
2023-03-30T04:41:51.250Z,99256.38
2023-03-30T04:44:37.196Z,99257.38
2023-03-30T04:47:20.498Z,99261.66
2023-03-30T04:50:10.766Z,99258.66
2023-03-30T04:52:57.089Z,99258.47
2023-03-30T04:55:24.285Z,99257.28
2023-03-30T04:58:30.770Z,99254.44
2023-03-30T05:01:24.332Z,99252.09
2023-03-30T05:04:11.035Z,99246.09
2023-03-30T05:06:42.019Z,99237.41
2023-03-30T05:09:38.862Z,99237.31
2023-03-30T05:12:41.512Z,99240.22
2023-03-30T05:15:15.060Z,99244.69
2023-03-30T05:18:01.863Z,99237.22
2023-03-30T05:20:48.920Z,99234.22
2023-03-30T05:23:34.775Z,99234.09
2023-03-30T05:26:19.433Z,99233.72
2023-03-30T05:29:05.399Z,99230.09
2023-03-30T05:31:56.090Z,99228.69
2023-03-30T05:34:44.893Z,99228.13
2023-03-30T05:37:22.048Z,99229.22
2023-03-30T05:40:16.294Z,99228.88
2023-03-30T05:43:02.953Z,99225.66
2023-03-30T05:46:01.137Z,99228.19
2023-03-30T05:48:40.652Z,99222.34
2023-03-30T05:51:25.869Z,99229.69
2023-03-30T05:54:06.617Z,99229.75
2023-03-30T05:56:52.840Z,99224.72
2023-03-30T05:59:33.379Z,99223.97
2023-03-30T06:02:01.055Z,99221.38
2023-03-30T06:04:29.800Z,99220.81
2023-03-30T06:06:57.205Z,99215.59
2023-03-30T06:09:26.335Z,99218.09
2023-03-30T06:11:55.749Z,99205.91
2023-03-30T06:14:25.861Z,99204.75
2023-03-30T06:17:22.144Z,99203.63
2023-03-30T06:19:50.057Z,99204.09
2023-03-30T06:22:17.451Z,99189.84
2023-03-30T06:24:53.466Z,99189.53
2023-03-30T06:27:21.637Z,99186.69
2023-03-30T06:29:49.405Z,99178.22
2023-03-30T06:32:17.120Z,99173.38
2023-03-30T06:35:23.473Z,99171.44
2023-03-30T06:37:52.176Z,99172.06
2023-03-30T06:40:21.115Z,99167.03
2023-03-30T06:42:50.911Z,99160.09
2023-03-30T06:45:36.968Z,99164.63
2023-03-30T06:48:06.732Z,99173.19
2023-03-30T06:50:38.739Z,99169.97
2023-03-30T06:53:24.113Z,99167.91
2023-03-30T06:55:58.603Z,99166.72
2023-03-30T06:58:30.320Z,99155.25
2023-03-30T07:00:58.527Z,99154.03
2023-03-30T07:03:43.884Z,99155.25
2023-03-30T07:06:22.955Z,99165.44
2023-03-30T07:08:50.834Z,99148.25
2023-03-30T07:11:23.441Z,99150.28
2023-03-30T07:13:52.269Z,99144.28
2023-03-30T07:16:19.826Z,99143.66
2023-03-30T07:18:48.108Z,99138.69
2023-03-30T07:21:16.172Z,99137.81
2023-03-30T07:23:43.596Z,99141.44
2023-03-30T07:26:18.630Z,99133.16
2023-03-30T07:29:01.423Z,99137.63
2023-03-30T07:31:29.828Z,99126.06
2023-03-30T07:33:57.889Z,99128.47
2023-03-30T07:36:33.119Z,99113.66
2023-03-30T07:39:02.626Z,99118.28
2023-03-30T07:41:35.467Z,99111.00
2023-03-30T07:44:03.191Z,99119.91
2023-03-30T07:46:31.258Z,99116.94
2023-03-30T07:48:58.957Z,99105.56
2023-03-30T07:51:28.390Z,99104.81
2023-03-30T07:54:18.685Z,99099.72
2023-03-30T07:57:00.476Z,99103.19
2023-03-30T07:59:27.933Z,99104.50
2023-03-30T08:02:01.553Z,99104.00
2023-03-30T08:04:44.815Z,99094.81
2023-03-30T08:07:14.746Z,99089.16
2023-03-30T08:09:42.322Z,99090.94
2023-03-30T08:12:10.068Z,99085.91
2023-03-30T08:14:37.604Z,99088.38
2023-03-30T08:17:05.281Z,99078.84
2023-03-30T08:19:32.878Z,99070.53
2023-03-30T08:22:02.280Z,99072.81
2023-03-30T08:24:29.613Z,99063.28
2023-03-30T08:26:57.570Z,99068.47
2023-03-30T08:29:25.292Z,99060.81
2023-03-30T08:31:53.143Z,99057.41
2023-03-30T08:34:20.405Z,99069.59
2023-03-30T08:36:48.196Z,99071.47
2023-03-30T08:39:15.886Z,99068.16
2023-03-30T08:42:06.399Z,99057.59
2023-03-30T08:44:37.774Z,99053.53
2023-03-30T08:47:34.993Z,99060.75
2023-03-30T08:50:14.785Z,99057.28
2023-03-30T08:52:43.126Z,99050.00
2023-03-30T08:55:49.679Z,99052.44
2023-03-30T08:58:44.501Z,99054.41
2023-03-30T09:01:43.200Z,99048.25
2023-03-30T09:04:49.497Z,99055.38
2023-03-30T09:07:28.905Z,99049.09
2023-03-30T09:09:58.161Z,99057.81
2023-03-30T09:12:54.806Z,99053.56
2023-03-30T09:16:20.924Z,99046.63
2023-03-30T09:18:57.445Z,99039.88
2023-03-30T09:21:31.455Z,99036.13
2023-03-30T09:24:12.107Z,99025.38
2023-03-30T09:26:55.040Z,99022.44
2023-03-30T09:29:31.836Z,99025.06
2023-03-30T09:32:23.738Z,99015.41
2023-03-30T09:35:14.630Z,98999.91
2023-03-30T09:37:42.520Z,98999.41
2023-03-30T09:40:31.740Z,98997.91
2023-03-30T09:43:31.857Z,98990.38
2023-03-30T09:46:02.724Z,98989.91
2023-03-30T09:48:41.070Z,98986.19
2023-03-30T09:51:31.169Z,98975.41
2023-03-30T09:54:06.498Z,98978.72
2023-03-30T09:56:47.191Z,98973.88
2023-03-30T09:59:37.096Z,98956.47
2023-03-30T10:02:13.680Z,98963.75
2023-03-30T10:04:54.119Z,98960.06
2023-03-30T10:07:34.105Z,98952.63
2023-03-30T10:10:21.749Z,98943.56
2023-03-30T10:12:50.983Z,98942.56
2023-03-30T10:15:24.465Z,98926.97
2023-03-30T10:17:56.247Z,98916.50
2023-03-30T10:20:36.869Z,98913.78
2023-03-30T10:23:18.938Z,98908.94
2023-03-30T10:25:52.227Z,98894.63
2023-03-30T10:28:27.156Z,98894.56
2023-03-30T10:31:15.015Z,98901.75
2023-03-30T10:33:45.031Z,98891.66
2023-03-30T10:36:17.440Z,98889.63
2023-03-30T10:38:46.478Z,98878.00
2023-03-30T10:41:24.064Z,98871.53
2023-03-30T10:43:52.573Z,98881.53
2023-03-30T10:46:24.838Z,98877.25
2023-03-30T10:49:24.598Z,98868.47
2023-03-30T10:52:17.211Z,98873.19
2023-03-30T10:54:57.879Z,98867.59
2023-03-30T10:57:45.288Z,98849.59
2023-03-30T11:00:56.098Z,98847.50
2023-03-30T11:03:29.553Z,98834.66
2023-03-30T11:06:38.406Z,98822.38
2023-03-30T11:09:16.700Z,98815.22
2023-03-30T11:12:01.663Z,98806.66
2023-03-30T11:14:52.054Z,98809.25
2023-03-30T11:17:22.136Z,98802.66
2023-03-30T11:19:56.939Z,98800.94
2023-03-30T11:23:11.266Z,98808.78
2023-03-30T11:25:57.946Z,98815.13
2023-03-30T11:28:43.175Z,98808.16
2023-03-30T11:31:44.470Z,98807.97
2023-03-30T11:34:24.932Z,98808.38
2023-03-30T11:37:01.782Z,98798.53
2023-03-30T11:39:34.498Z,98800.94
2023-03-30T11:42:24.260Z,98814.75
2023-03-30T11:44:52.326Z,98812.28
2023-03-30T11:47:46.448Z,98798.41
2023-03-30T11:50:32.253Z,98802.41
2023-03-30T11:53:11.581Z,98797.66
2023-03-30T11:55:47.409Z,98800.38
2023-03-30T11:58:26.965Z,98790.09
2023-03-30T12:01:24.146Z,98786.88
2023-03-30T12:04:16.661Z,98774.84
2023-03-30T12:07:00.289Z,98766.63
2023-03-30T12:09:58.118Z,98756.31
2023-03-30T12:12:39.342Z,98744.41
2023-03-30T12:15:41.683Z,98739.94
2023-03-30T12:18:37.453Z,98737.34
2023-03-30T12:21:44.769Z,98729.03
2023-03-30T12:24:51.622Z,98733.78
2023-03-30T12:27:19.260Z,98725.75
2023-03-30T12:32:29.252Z,98727.44
2023-03-30T12:34:58.946Z,98728.91
2023-03-30T12:37:36.490Z,98732.50
2023-03-30T12:40:22.485Z,98731.84
2023-03-30T12:43:27.078Z,98726.91
2023-03-30T12:46:26.032Z,98725.47
2023-03-30T12:49:23.674Z,98734.25
2023-03-30T12:52:21.844Z,98738.59
2023-03-30T12:55:04.286Z,98738.66
2023-03-30T12:58:17.577Z,98741.06
2023-03-30T13:01:12.530Z,98731.53
2023-03-30T13:03:54.213Z,98730.06
2023-03-30T13:06:35.325Z,98746.84
2023-03-30T13:09:15.268Z,98753.88
2023-03-30T13:12:07.280Z,98746.75
2023-03-30T13:14:35.226Z,98745.13
2023-03-30T13:17:20.453Z,98747.34
2023-03-30T13:20:29.232Z,98753.28
2023-03-30T13:23:22.681Z,98740.41
2023-03-30T13:26:35.143Z,98743.16
2023-03-30T13:29:11.847Z,98736.69
2023-03-30T13:32:15.896Z,98734.03
2023-03-30T13:35:03.062Z,98733.00
2023-03-30T13:38:07.678Z,98737.91
2023-03-30T13:41:03.978Z,98734.09
2023-03-30T13:43:52.692Z,98743.00
2023-03-30T13:46:26.401Z,98738.50
2023-03-30T13:49:36.926Z,98739.41
2023-03-30T13:52:18.493Z,98736.72
2023-03-30T13:54:47.432Z,98736.75
2023-03-30T13:57:28.450Z,98738.09
2023-03-30T14:00:21.398Z,98741.88
2023-03-30T14:02:49.721Z,98730.34
2023-03-30T14:05:26.307Z,98742.53
2023-03-30T14:07:58.535Z,98733.91
2023-03-30T14:10:27.752Z,98742.81
2023-03-30T14:12:58.017Z,98739.38
2023-03-30T14:15:35.861Z,98741.59
2023-03-30T14:18:05.568Z,98733.53
2023-03-30T14:20:53.070Z,98738.38
2023-03-30T14:23:43.876Z,98742.75
2023-03-30T14:26:32.186Z,98746.00
2023-03-30T14:29:13.286Z,98736.31
2023-03-30T14:31:47.249Z,98741.69
2023-03-30T14:34:28.924Z,98736.34
2023-03-30T14:37:08.386Z,98736.38
2023-03-30T14:39:51.234Z,98737.22
2023-03-30T14:42:24.671Z,98744.00
2023-03-30T14:44:57.196Z,98727.53
2023-03-30T14:47:27.880Z,98735.41
2023-03-30T14:50:00.009Z,98737.59
2023-03-30T14:52:38.674Z,98734.34
2023-03-30T14:55:13.783Z,98737.88
2023-03-30T14:57:46.375Z,98736.28
2023-03-30T15:00:25.119Z,98729.03
2023-03-30T15:02:58.963Z,98727.97
2023-03-30T15:05:36.516Z,98726.38
2023-03-30T15:08:05.062Z,98732.31
2023-03-30T15:10:52.701Z,98731.78
2023-03-30T15:13:43.909Z,98728.81
2023-03-30T15:16:20.165Z,98725.88
2023-03-30T15:18:48.254Z,98726.94
2023-03-30T15:21:16.760Z,98735.56
2023-03-30T15:23:47.970Z,98728.59
2023-03-30T15:26:17.306Z,98724.28
2023-03-30T15:29:04.569Z,98726.75
2023-03-30T15:31:32.257Z,98722.19
2023-03-30T15:34:02.434Z,98719.53
2023-03-30T15:36:41.076Z,98718.44
2023-03-30T15:39:34.355Z,98706.91
2023-03-30T15:42:05.985Z,98703.41
2023-03-30T15:44:41.281Z,98705.28
2023-03-30T15:47:19.896Z,98702.88
2023-03-30T15:49:51.688Z,98705.03
2023-03-30T15:52:33.305Z,98701.75
2023-03-30T15:55:26.226Z,98693.16
2023-03-30T15:57:54.211Z,98688.84
2023-03-30T16:00:27.834Z,98695.31
2023-03-30T16:03:01.652Z,98685.34
2023-03-30T16:05:33.951Z,98690.44
2023-03-30T16:08:01.816Z,98685.34
2023-03-30T16:10:33.124Z,98685.88
2023-03-30T16:13:02.358Z,98682.38
2023-03-30T16:15:33.160Z,98684.00
2023-03-30T16:18:01.456Z,98687.22
2023-03-30T16:20:33.571Z,98690.19
2023-03-30T16:23:01.651Z,98678.34
2023-03-30T16:28:00.052Z,98674.31
2023-03-30T16:30:35.952Z,98672.13
2023-03-30T16:33:05.210Z,98672.66
2023-03-30T16:35:32.551Z,98670.25
2023-03-30T16:38:00.543Z,98673.19
2023-03-30T16:40:36.099Z,98664.03
2023-03-30T16:43:04.393Z,98665.66
2023-03-30T16:45:33.496Z,98660.78
2023-03-30T16:48:01.924Z,98660.25
2023-03-30T16:50:44.468Z,98658.59
2023-03-30T16:53:13.501Z,98666.13
2023-03-30T16:55:41.814Z,98652.63
2023-03-30T16:58:15.052Z,98655.84
2023-03-30T17:00:52.560Z,98660.63
2023-03-30T17:03:20.914Z,98658.47
2023-03-30T17:05:48.999Z,98645.28
2023-03-30T17:08:28.769Z,98650.38
2023-03-30T17:11:01.090Z,98650.91
2023-03-30T17:13:29.820Z,98644.44
2023-03-30T17:15:59.744Z,98639.59
2023-03-30T17:18:28.303Z,98638.50
2023-03-30T17:20:58.132Z,98643.28
2023-03-30T17:23:29.881Z,98645.16
2023-03-30T17:26:00.182Z,98631.72
2023-03-30T17:28:34.621Z,98640.56
2023-03-30T17:31:04.953Z,98632.75
2023-03-30T17:33:35.097Z,98633.25
2023-03-30T17:36:20.509Z,98625.97
2023-03-30T17:38:50.224Z,98635.13
2023-03-30T17:41:19.664Z,98619.53
2023-03-30T17:43:48.371Z,98616.31
2023-03-30T17:46:19.158Z,98617.34
2023-03-30T17:48:47.679Z,98615.19
2023-03-30T17:51:14.916Z,98619.47
2023-03-30T17:53:42.868Z,98615.16
2023-03-30T17:56:13.482Z,98611.94
2023-03-30T17:58:41.485Z,98619.44
2023-03-30T18:01:12.520Z,98622.63
2023-03-30T18:03:41.244Z,98623.16
2023-03-30T18:06:11.754Z,98634.41
2023-03-30T18:08:39.877Z,98629.56
2023-03-30T18:11:07.290Z,98630.06
2023-03-30T18:13:35.674Z,98638.38
2023-03-30T18:16:04.803Z,98633.84
2023-03-30T18:18:32.632Z,98631.91
2023-03-30T18:21:04.540Z,98636.47
2023-03-30T18:23:34.866Z,98635.13
2023-03-30T18:26:10.135Z,98625.69
2023-03-30T18:28:43.386Z,98628.88
2023-03-30T18:31:11.298Z,98630.72
2023-03-30T18:33:39.675Z,98636.38
2023-03-30T18:36:12.971Z,98637.69
2023-03-30T18:38:42.035Z,98636.06
2023-03-30T18:41:12.727Z,98641.91
2023-03-30T18:43:40.842Z,98639.50
2023-03-30T18:46:12.756Z,98640.00
2023-03-30T18:48:41.200Z,98631.41
2023-03-30T18:51:11.836Z,98628.19
2023-03-30T18:53:40.363Z,98632.19
2023-03-30T18:56:12.148Z,98627.09
2023-03-30T18:58:42.143Z,98623.84
2023-03-30T19:01:12.956Z,98617.94
2023-03-30T19:03:42.242Z,98624.38
2023-03-30T19:06:22.142Z,98623.78
2023-03-30T19:08:51.021Z,98616.28
2023-03-30T19:11:24.579Z,98618.38
2023-03-30T19:13:53.231Z,98628.56
2023-03-30T19:16:22.309Z,98610.88
2023-03-30T19:18:50.208Z,98604.97
2023-03-30T19:21:18.472Z,98604.97
2023-03-30T19:23:46.074Z,98614.59
2023-03-30T19:26:13.553Z,98607.06
2023-03-30T19:28:41.295Z,98609.75
2023-03-30T19:31:16.406Z,98609.69
2023-03-30T19:33:44.539Z,98593.63
2023-03-30T19:36:12.161Z,98598.44
2023-03-30T19:38:54.647Z,98608.09
2023-03-30T19:41:22.106Z,98604.06
2023-03-30T19:43:50.797Z,98605.09
2023-03-30T19:46:18.771Z,98606.97
2023-03-30T19:48:46.267Z,98598.38
2023-03-30T19:51:13.437Z,98603.19
2023-03-30T19:53:42.070Z,98612.31
2023-03-30T19:56:12.712Z,98609.63
2023-03-30T19:58:40.227Z,98598.59
2023-03-30T20:01:08.223Z,98611.44
2023-03-30T20:03:36.642Z,98614.94
2023-03-30T20:06:07.616Z,98616.00
2023-03-30T20:08:35.143Z,98617.84
2023-03-30T20:11:07.683Z,98613.25
2023-03-30T20:13:36.477Z,98615.38
2023-03-30T20:16:04.089Z,98610.03
2023-03-30T20:18:31.497Z,98615.38
2023-03-30T20:21:03.031Z,98613.75
2023-03-30T20:23:30.622Z,98608.41
2023-03-30T20:25:58.562Z,98615.88
2023-03-30T20:28:26.255Z,98602.75
2023-03-30T20:30:56.169Z,98608.91
2023-03-30T20:33:23.757Z,98607.31
2023-03-30T20:35:52.063Z,98597.41
2023-03-30T20:38:20.100Z,98599.25
2023-03-30T20:41:04.239Z,98594.41
2023-03-30T20:43:38.478Z,98591.72
2023-03-30T20:46:16.631Z,98595.47
2023-03-30T20:48:45.035Z,98595.97
2023-03-30T20:51:15.441Z,98590.63
2023-03-30T20:53:42.813Z,98584.72
2023-03-30T20:56:10.939Z,98584.13
2023-03-30T20:58:40.648Z,98580.91
2023-03-30T21:01:25.306Z,98564.53
2023-03-30T21:03:59.066Z,98569.59
2023-03-30T21:06:30.553Z,98568.47
2023-03-30T21:09:01.682Z,98563.34
2023-03-30T21:11:33.686Z,98568.16
2023-03-30T21:14:02.179Z,98572.69
2023-03-30T21:16:29.413Z,98570.28
2023-03-30T21:18:56.855Z,98573.22
2023-03-30T21:21:24.200Z,98563.84
2023-03-30T21:23:51.632Z,98567.28
2023-03-30T21:26:18.739Z,98566.75
2023-03-30T21:28:46.182Z,98571.28
2023-03-30T21:31:20.113Z,98565.16
2023-03-30T21:33:47.575Z,98568.88
2023-03-30T21:36:14.781Z,98573.13
2023-03-30T21:38:42.440Z,98566.63
2023-03-30T21:41:15.447Z,98559.13
2023-03-30T21:43:47.292Z,98552.69
2023-03-30T21:46:19.873Z,98552.69
2023-03-30T21:48:51.794Z,98549.47
2023-03-30T21:51:27.791Z,98541.69
2023-03-30T21:53:58.172Z,98540.88
2023-03-30T21:56:29.083Z,98545.69
2023-03-30T21:58:58.378Z,98547.22
2023-03-30T22:01:26.221Z,98542.13
2023-03-30T22:03:55.745Z,98539.94
2023-03-30T22:06:23.366Z,98538.53
2023-03-30T22:08:51.191Z,98546.03
2023-03-30T22:11:24.836Z,98541.97
2023-03-30T22:13:54.991Z,98537.66
2023-03-30T22:16:32.236Z,98524.81
2023-03-30T22:18:59.787Z,98526.66
2023-03-30T22:21:35.446Z,98523.19
2023-03-30T22:24:06.648Z,98522.63
2023-03-30T22:26:36.245Z,98523.44
2023-03-30T22:29:04.708Z,98518.59
2023-03-30T22:31:32.346Z,98525.25
2023-03-30T22:34:00.039Z,98529.78
2023-03-30T22:36:30.834Z,98522.81
2023-03-30T22:39:00.560Z,98522.81
2023-03-30T22:41:28.011Z,98515.84
2023-03-30T22:43:58.254Z,98526.22
2023-03-30T22:46:27.785Z,98534.50
2023-03-30T22:48:56.141Z,98530.47
2023-03-30T22:51:28.408Z,98521.63
2023-03-30T22:54:00.126Z,98522.69
2023-03-30T22:56:29.578Z,98506.06
2023-03-30T22:58:59.932Z,98508.75
2023-03-30T23:01:29.225Z,98519.16
2023-03-30T23:03:59.355Z,98515.66
2023-03-30T23:06:27.476Z,98512.44
2023-03-30T23:08:54.819Z,98512.69
2023-03-30T23:11:22.028Z,98510.25
2023-03-30T23:13:49.933Z,98521.44
2023-03-30T23:16:17.425Z,98520.31
2023-03-30T23:18:45.082Z,98520.81
2023-03-30T23:21:13.945Z,98533.13
2023-03-30T23:23:41.629Z,98542.69
2023-03-30T23:26:11.300Z,98535.72
2023-03-30T23:28:42.144Z,98531.44
2023-03-30T23:31:14.972Z,98534.09
2023-03-30T23:33:42.951Z,98538.66
2023-03-30T23:36:17.458Z,98539.97
2023-03-30T23:38:46.422Z,98544.72
2023-03-30T23:41:16.677Z,98546.63
2023-03-30T23:44:09.936Z,98544.16
2023-03-30T23:46:37.853Z,98547.31
2023-03-30T23:49:05.420Z,98545.66
2023-03-30T23:51:32.586Z,98540.22
2023-03-30T23:54:06.189Z,98537.00
2023-03-30T23:56:36.961Z,98543.88
2023-03-30T23:59:05.614Z,98540.63
